Time,TemperatureF,DewpointF,PressureIn,WindDirection,WindDirectionDegrees,WindSpeedMPH,WindSpeedGustMPH,Humidity,HourlyPrecipIn,Conditions,Clouds,dailyrainin,SoftwareType,DateUTC
2013-05-05 00:02:00,42.3,18.5,27.58,North,0,4.0,4.0,38,0.00,,---,0.00,VWS V14.01,2013-05-05 05:02:00,
2013-05-05 00:07:00,41.9,18.2,27.58,North,0,4.0,4.0,38,0.00,,---,0.00,VWS V14.01,2013-05-05 05:07:00,
2013-05-05 00:12:00,41.4,17.7,27.58,North,0,3.6,3.6,38,0.00,,---,0.00,VWS V14.01,2013-05-05 05:12:00,
2013-05-05 00:17:00,41.0,17.4,27.58,NNW,333,3.1,3.6,38,0.00,,---,0.00,VWS V14.01,2013-05-05 05:17:00,
2013-05-05 00:22:00,40.8,17.8,27.58,NNW,328,4.0,4.0,39,0.00,,---,0.00,VWS V14.01,2013-05-05 05:22:00,
2013-05-05 00:27:00,40.6,17.6,27.58,NNW,334,3.1,3.1,39,0.00,,---,0.00,VWS V14.01,2013-05-05 05:27:00,
2013-05-05 00:32:00,40.5,17.5,27.58,NNW,329,4.0,4.0,39,0.00,,---,0.00,VWS V14.01,2013-05-05 05:32:00,
2013-05-05 00:37:00,39.9,17.0,27.58,NNW,331,2.2,3.6,39,0.00,,---,0.00,VWS V14.01,2013-05-05 05:37:00,
2013-05-05 00:42:00,39.6,16.7,27.58,NNW,330,2.7,3.6,39,0.00,,---,0.00,VWS V14.01,2013-05-05 05:42:00,
2013-05-05 00:47:00,39.2,16.3,27.58,NNW,327,0.0,0.0,39,0.00,,---,0.00,VWS V14.01,2013-05-05 05:47:00,
2013-05-05 00:52:00,39.0,16.2,27.58,NW,325,2.7,4.0,39,0.00,,---,0.00,VWS V14.01,2013-05-05 05:52:00,
2013-05-05 00:57:00,38.7,15.9,27.58,NW,322,0.0,2.7,39,0.00,,---,0.00,VWS V14.01,2013-05-05 05:57:00,
2013-05-05 01:02:00,38.5,15.7,27.58,NNW,331,3.6,3.6,39,0.00,,---,0.00,VWS V14.01,2013-05-05 06:02:00,
2013-05-05 01:07:00,38.1,15.4,27.58,NW,324,3.1,3.1,39,0.00,,---,0.00,VWS V14.01,2013-05-05 06:07:00,
2013-05-05 01:12:00,37.9,15.2,27.58,NW,322,2.7,2.7,39,0.00,,---,0.00,VWS V14.01,2013-05-05 06:12:00,
2013-05-05 01:17:00,37.9,15.2,27.58,NW,322,2.7,2.7,39,0.00,,---,0.00,VWS V14.01,2013-05-05 06:17:00,
2013-05-05 01:22:00,37.6,14.9,27.58,NW,322,2.7,2.7,39,0.00,,---,0.00,VWS V14.01,2013-05-05 06:22:00,
2013-05-05 01:27:00,37.0,15.0,27.58,NW,322,2.7,2.7,40,0.00,,---,0.00,VWS V14.01,2013-05-05 06:27:00,
2013-05-05 01:32:00,36.5,14.5,27.58,NW,325,2.7,2.7,40,0.00,,---,0.00,VWS V14.01,2013-05-05 06:32:00,
2013-05-05 01:37:00,36.3,14.3,27.58,NW,324,2.7,3.1,40,0.00,,---,0.00,VWS V14.01,2013-05-05 06:37:00,
2013-05-05 01:42:00,36.0,14.0,27.58,NW,319,4.0,4.0,40,0.00,,---,0.00,VWS V14.01,2013-05-05 06:42:00,
2013-05-05 01:47:00,35.8,13.8,27.58,WNW,286,3.6,3.6,40,0.00,,---,0.00,VWS V14.01,2013-05-05 06:47:00,
2013-05-05 01:52:00,34.9,13.0,27.58,North,353,0.0,2.7,40,0.00,,---,0.00,VWS V14.01,2013-05-05 06:52:00,
2013-05-05 01:57:00,34.7,12.9,27.58,NW,304,3.1,3.1,40,0.00,,---,0.00,VWS V14.01,2013-05-05 06:57:00,
2013-05-05 02:02:00,34.3,12.5,27.58,NW,304,3.1,3.1,40,0.00,,---,0.00,VWS V14.01,2013-05-05 07:02:00,
2013-05-05 02:07:00,34.0,12.2,27.58,NW,314,0.0,0.0,40,0.00,,---,0.00,VWS V14.01,2013-05-05 07:07:00,
2013-05-05 02:12:00,34.0,12.2,27.58,WNW,298,3.1,3.1,40,0.00,,---,0.00,VWS V14.01,2013-05-05 07:12:00,
2013-05-05 02:17:00,33.4,11.7,27.58,WNW,296,4.0,4.0,40,0.00,,---,0.00,VWS V14.01,2013-05-05 07:17:00,
2013-05-05 02:22:00,33.4,11.7,27.58,WNW,295,3.6,4.0,40,0.00,,---,0.00,VWS V14.01,2013-05-05 07:22:00,
2013-05-05 02:27:00,33.3,11.6,27.58,WNW,291,3.1,4.0,40,0.00,,---,0.00,VWS V14.01,2013-05-05 07:27:00,
2013-05-05 02:32:00,33.3,11.6,27.58,WNW,291,4.9,4.9,40,0.00,,---,0.00,VWS V14.01,2013-05-05 07:32:00,
2013-05-05 02:37:00,33.3,11.6,27.58,WNW,288,5.4,5.4,40,0.00,,---,0.00,VWS V14.01,2013-05-05 07:37:00,
2013-05-05 02:42:00,32.9,11.2,27.58,WNW,300,3.1,3.6,40,0.00,,---,0.00,VWS V14.01,2013-05-05 07:42:00,
2013-05-05 02:47:00,32.5,10.9,27.58,WNW,299,3.6,3.6,40,0.00,,---,0.00,VWS V14.01,2013-05-05 07:47:00,
2013-05-05 02:52:00,32.2,10.6,27.58,WNW,301,2.7,4.0,40,0.00,,---,0.00,VWS V14.01,2013-05-05 07:52:00,
2013-05-05 02:57:00,31.8,10.3,27.58,WNW,294,3.6,4.0,40,0.00,,---,0.00,VWS V14.01,2013-05-05 07:57:00,
2013-05-05 03:02:00,32.0,10.4,27.58,WNW,301,3.6,3.6,40,0.00,,---,0.00,VWS V14.01,2013-05-05 08:02:00,
2013-05-05 03:07:00,31.5,9.9,27.58,WNW,300,2.7,3.1,40,0.00,,---,0.00,VWS V14.01,2013-05-05 08:07:00,
2013-05-05 03:12:00,31.6,10.1,27.58,NW,318,3.1,5.4,40,0.00,,---,0.00,VWS V14.01,2013-05-05 08:12:00,
2013-05-05 03:17:00,31.5,9.9,27.58,NW,305,2.7,2.7,40,0.00,,---,0.00,VWS V14.01,2013-05-05 08:17:00,
2013-05-05 03:22:00,30.9,9.4,27.58,NW,304,2.2,2.2,40,0.00,,---,0.00,VWS V14.01,2013-05-05 08:22:00,
2013-05-05 03:27:00,30.9,9.4,27.58,NW,322,3.6,3.6,40,0.00,,---,0.00,VWS V14.01,2013-05-05 08:27:00,
2013-05-05 03:32:00,30.7,9.3,27.58,NW,308,2.7,2.7,40,0.00,,---,0.00,VWS V14.01,2013-05-05 08:32:00,
2013-05-05 03:37:00,30.7,9.3,27.58,NW,317,2.7,3.1,40,0.00,,---,0.00,VWS V14.01,2013-05-05 08:37:00,
2013-05-05 03:42:00,30.0,9.2,27.58,NW,319,0.0,0.0,41,0.00,,---,0.00,VWS V14.01,2013-05-05 08:42:00,
2013-05-05 03:47:00,29.7,8.9,27.58,NW,311,2.7,2.7,41,0.00,,---,0.00,VWS V14.01,2013-05-05 08:47:00,
2013-05-05 03:52:00,29.3,8.5,27.58,NW,318,3.1,3.1,41,0.00,,---,0.00,VWS V14.01,2013-05-05 08:52:00,
2013-05-05 03:57:00,29.1,8.4,27.58,WNW,286,2.7,2.7,41,0.00,,---,0.00,VWS V14.01,2013-05-05 08:57:00,
2013-05-05 04:02:00,28.8,8.0,27.58,NNW,331,2.2,3.1,41,0.00,,---,0.00,VWS V14.01,2013-05-05 09:02:00,
2013-05-05 04:07:00,29.1,8.4,27.58,NW,322,3.1,3.1,41,0.00,,---,0.00,VWS V14.01,2013-05-05 09:07:00,
2013-05-05 04:12:00,29.5,8.7,27.58,NW,320,3.1,3.6,41,0.00,,---,0.00,VWS V14.01,2013-05-05 09:12:00,
2013-05-05 04:17:00,29.1,8.4,27.58,NNW,333,2.7,3.6,41,0.00,,---,0.00,VWS V14.01,2013-05-05 09:17:00,
2013-05-05 04:22:00,28.9,8.2,27.58,NNW,333,3.6,4.0,41,0.00,,---,0.00,VWS V14.01,2013-05-05 09:22:00,
2013-05-05 04:27:00,28.9,8.2,27.58,NNW,332,0.0,0.0,41,0.00,,---,0.00,VWS V14.01,2013-05-05 09:27:00,
2013-05-05 04:32:00,28.6,7.9,27.58,NNW,332,0.0,0.0,41,0.00,,---,0.00,VWS V14.01,2013-05-05 09:32:00,
2013-05-05 04:37:00,28.4,7.7,27.58,NNW,332,2.2,3.1,41,0.00,,---,0.00,VWS V14.01,2013-05-05 09:37:00,
2013-05-05 04:42:00,28.0,7.4,27.58,NNW,333,3.1,3.1,41,0.00,,---,0.00,VWS V14.01,2013-05-05 09:42:00,
2013-05-05 04:47:00,27.9,7.2,27.58,NNW,333,0.0,2.7,41,0.00,,---,0.00,VWS V14.01,2013-05-05 09:47:00,
2013-05-05 04:52:00,27.9,7.2,27.58,NNW,333,2.2,2.7,41,0.00,,---,0.00,VWS V14.01,2013-05-05 09:52:00,
2013-05-05 04:57:00,27.3,6.7,27.58,NNW,332,2.7,2.7,41,0.00,,---,0.00,VWS V14.01,2013-05-05 09:57:00,
2013-05-05 05:02:00,27.0,6.4,27.58,NNW,332,0.0,0.0,41,0.00,,---,0.00,VWS V14.01,2013-05-05 10:02:00,
2013-05-05 05:07:00,27.0,6.4,27.58,NNW,332,2.7,2.7,41,0.00,,---,0.00,VWS V14.01,2013-05-05 10:07:00,
2013-05-05 05:12:00,26.8,6.2,27.58,NNW,332,2.2,2.7,41,0.00,,---,0.00,VWS V14.01,2013-05-05 10:12:00,
2013-05-05 05:17:00,27.0,6.4,27.58,NNW,332,3.1,3.1,41,0.00,,---,0.00,VWS V14.01,2013-05-05 10:17:00,
2013-05-05 05:22:00,26.6,6.6,27.58,NNW,332,0.0,0.0,42,0.00,,---,0.00,VWS V14.01,2013-05-05 10:22:00,
2013-05-05 05:27:00,26.1,6.1,27.58,NNW,332,0.0,0.0,42,0.00,,---,0.00,VWS V14.01,2013-05-05 10:27:00,
2013-05-05 05:32:00,25.9,6.0,27.58,NNW,332,0.0,0.0,42,0.00,,---,0.00,VWS V14.01,2013-05-05 10:32:00,
2013-05-05 05:37:00,25.5,5.6,27.58,NNW,332,0.0,2.2,42,0.00,,---,0.00,VWS V14.01,2013-05-05 10:37:00,
2013-05-05 05:42:00,25.2,5.3,27.58,NNW,332,0.0,0.0,42,0.00,,---,0.00,VWS V14.01,2013-05-05 10:42:00,
2013-05-05 05:47:00,25.3,5.5,27.58,NNW,332,2.7,2.7,42,0.00,,---,0.00,VWS V14.01,2013-05-05 10:47:00,
2013-05-05 05:52:00,25.5,5.6,27.58,NNW,332,0.0,2.7,42,0.00,,---,0.00,VWS V14.01,2013-05-05 10:52:00,
2013-05-05 05:57:00,25.3,5.5,27.58,NNW,332,0.0,0.0,42,0.00,,---,0.00,VWS V14.01,2013-05-05 10:57:00,
2013-05-05 06:02:00,25.2,5.3,27.58,NNW,332,0.0,0.0,42,0.00,,---,0.00,VWS V14.01,2013-05-05 11:02:00,
2013-05-05 06:07:00,25.0,5.1,27.58,NNW,332,2.7,2.7,42,0.00,,---,0.00,VWS V14.01,2013-05-05 11:07:00,
2013-05-05 06:12:00,25.0,5.1,27.58,NNW,332,0.0,0.0,42,0.00,,---,0.00,VWS V14.01,2013-05-05 11:12:00,
2013-05-05 06:17:00,24.8,5.0,27.58,NNW,332,2.7,2.7,42,0.00,,---,0.00,VWS V14.01,2013-05-05 11:17:00,
2013-05-05 06:22:00,24.8,5.0,27.58,NNW,332,2.2,2.2,42,0.00,,---,0.00,VWS V14.01,2013-05-05 11:22:00,
2013-05-05 06:27:00,24.8,5.0,27.58,NNW,332,0.0,0.0,42,0.00,,---,0.00,VWS V14.01,2013-05-05 11:27:00,
2013-05-05 06:32:00,25.0,5.1,27.58,NNW,332,2.7,2.7,42,0.00,,---,0.00,VWS V14.01,2013-05-05 11:32:00,
2013-05-05 06:37:00,24.8,5.0,27.58,NNW,339,2.7,2.7,42,0.00,,---,0.00,VWS V14.01,2013-05-05 11:37:00,
2013-05-05 06:42:00,25.2,5.3,27.58,NNW,339,2.7,2.7,42,0.00,,---,0.00,VWS V14.01,2013-05-05 11:42:00,
2013-05-05 06:47:00,25.3,5.5,27.58,NNW,340,2.7,2.7,42,0.00,,---,0.00,VWS V14.01,2013-05-05 11:47:00,
2013-05-05 06:52:00,26.1,6.1,27.58,NNW,346,3.1,3.1,42,0.00,,---,0.00,VWS V14.01,2013-05-05 11:52:00,
2013-05-05 06:57:00,26.6,6.6,27.58,NW,318,0.0,3.6,42,0.00,,---,0.00,VWS V14.01,2013-05-05 11:57:00,
2013-05-05 07:02:00,27.7,7.1,27.58,NW,318,0.0,0.0,41,0.00,,---,0.00,VWS V14.01,2013-05-05 12:02:00,
2013-05-05 07:07:00,28.0,7.4,27.58,NW,313,3.1,3.1,41,0.00,,---,0.00,VWS V14.01,2013-05-05 12:07:00,
2013-05-05 07:12:00,29.5,8.7,27.58,NW,313,0.0,0.0,41,0.00,,---,0.00,VWS V14.01,2013-05-05 12:12:00,
2013-05-05 07:17:00,30.9,9.4,27.58,NW,312,2.7,2.7,40,0.00,,---,0.00,VWS V14.01,2013-05-05 12:17:00,
2013-05-05 07:22:00,31.5,9.9,27.58,NW,323,3.6,3.6,40,0.00,,---,0.00,VWS V14.01,2013-05-05 12:22:00,
2013-05-05 07:27:00,32.7,11.1,27.58,NW,311,2.7,2.7,40,0.00,,---,0.00,VWS V14.01,2013-05-05 12:27:00,
2013-05-05 07:32:00,33.8,12.1,27.58,NW,322,3.6,3.6,40,0.00,,---,0.00,VWS V14.01,2013-05-05 12:32:00,
2013-05-05 07:37:00,34.3,12.5,27.58,NNW,327,3.6,3.6,40,0.00,,---,0.00,VWS V14.01,2013-05-05 12:37:00,
2013-05-05 07:42:00,35.1,13.2,27.58,NW,325,4.9,4.9,40,0.00,,---,0.00,VWS V14.01,2013-05-05 12:42:00,
2013-05-05 07:47:00,36.3,14.3,27.58,NNW,334,3.6,3.6,40,0.00,,---,0.00,VWS V14.01,2013-05-05 12:47:00,
2013-05-05 07:52:00,37.0,15.0,27.58,NNW,329,4.0,4.0,40,0.00,,---,0.00,VWS V14.01,2013-05-05 12:52:00,
2013-05-05 07:57:00,38.1,15.4,27.58,NW,316,4.9,4.9,39,0.00,,---,0.00,VWS V14.01,2013-05-05 12:57:00,
2013-05-05 08:02:00,37.6,14.9,27.58,NNW,333,0.0,2.7,39,0.00,,---,0.00,VWS V14.01,2013-05-05 13:02:00,
2013-05-05 08:07:00,38.8,16.0,27.58,NW,321,2.7,3.1,39,0.00,,---,0.00,VWS V14.01,2013-05-05 13:07:00,
2013-05-05 08:12:00,40.5,17.5,27.58,NW,306,3.1,3.6,39,0.00,,---,0.00,VWS V14.01,2013-05-05 13:12:00,
2013-05-05 08:17:00,40.6,17.6,27.58,NNW,327,4.0,4.0,39,0.00,,---,0.00,VWS V14.01,2013-05-05 13:17:00,
2013-05-05 08:22:00,41.9,18.2,27.58,NW,324,4.0,4.0,38,0.00,,---,0.00,VWS V14.01,2013-05-05 13:22:00,
2013-05-05 08:27:00,43.3,19.5,27.58,NW,315,5.8,5.8,38,0.00,,---,0.00,VWS V14.01,2013-05-05 13:27:00,
2013-05-05 08:32:00,42.6,18.8,27.58,NNW,334,5.8,5.8,38,0.00,,---,0.00,VWS V14.01,2013-05-05 13:32:00,
2013-05-05 08:37:00,44.2,20.3,27.58,NW,322,3.1,3.1,38,0.00,,---,0.00,VWS V14.01,2013-05-05 13:37:00,
2013-05-05 08:42:00,46.0,21.9,27.58,NW,312,5.4,5.8,38,0.00,,---,0.00,VWS V14.01,2013-05-05 13:42:00,
2013-05-05 08:47:00,46.6,21.7,27.58,North,349,4.0,5.4,37,0.00,,---,0.00,VWS V14.01,2013-05-05 13:47:00,
2013-05-05 08:52:00,47.1,22.2,27.58,NNW,329,5.8,5.8,37,0.00,,---,0.00,VWS V14.01,2013-05-05 13:52:00,
2013-05-05 08:57:00,48.9,23.8,27.58,NNW,345,6.3,6.7,37,0.00,,---,0.00,VWS V14.01,2013-05-05 13:57:00,
2013-05-05 09:02:00,49.1,24.0,27.58,North,0,4.0,6.3,37,0.00,,---,0.00,VWS V14.01,2013-05-05 14:02:00,
2013-05-05 09:07:00,49.8,24.6,27.58,North,353,5.4,6.3,37,0.00,,---,0.00,VWS V14.01,2013-05-05 14:07:00,
2013-05-05 09:12:00,50.2,24.3,27.58,North,353,6.3,6.3,36,0.00,,---,0.00,VWS V14.01,2013-05-05 14:12:00,
2013-05-05 09:17:00,50.5,24.6,27.61,NNW,345,7.6,7.6,36,0.00,,---,0.00,VWS V14.01,2013-05-05 14:17:00,
2013-05-05 09:22:00,49.8,24.6,27.61,NNW,328,8.3,8.3,37,0.00,,---,0.00,VWS V14.01,2013-05-05 14:22:00,
2013-05-05 09:27:00,50.5,24.6,27.61,NW,320,6.7,6.7,36,0.00,,---,0.00,VWS V14.01,2013-05-05 14:27:00,
2013-05-05 09:32:00,50.9,24.9,27.61,North,0,5.4,5.4,36,0.00,,---,0.00,VWS V14.01,2013-05-05 14:32:00,
2013-05-05 09:37:00,50.2,24.3,27.61,NNW,344,5.8,5.8,36,0.00,,---,0.00,VWS V14.01,2013-05-05 14:37:00,
2013-05-05 09:42:00,53.4,27.1,27.61,NNE,16,5.8,5.8,36,0.00,,---,0.00,VWS V14.01,2013-05-05 14:42:00,
2013-05-05 09:47:00,53.8,27.5,27.61,NNW,337,8.3,8.3,36,0.00,,---,0.00,VWS V14.01,2013-05-05 14:47:00,
2013-05-05 09:52:00,53.4,27.1,27.61,NW,305,5.4,5.8,36,0.00,,---,0.00,VWS V14.01,2013-05-05 14:52:00,
2013-05-05 09:57:00,53.4,27.1,27.61,NNW,333,5.4,5.4,36,0.00,,---,0.00,VWS V14.01,2013-05-05 14:57:00,
2013-05-05 10:02:00,54.5,28.1,27.61,NW,326,6.3,6.3,36,0.00,,---,0.00,VWS V14.01,2013-05-05 15:02:00,
2013-05-05 10:07:00,54.1,27.8,27.61,NNW,334,8.1,8.1,36,0.00,,---,0.00,VWS V14.01,2013-05-05 15:07:00,
2013-05-05 10:12:00,54.3,28.0,27.61,North,357,6.3,6.3,36,0.00,,---,0.00,VWS V14.01,2013-05-05 15:12:00,
2013-05-05 10:17:00,55.4,28.2,27.61,NNW,335,5.4,5.4,35,0.00,,---,0.00,VWS V14.01,2013-05-05 15:17:00,
2013-05-05 10:22:00,55.9,28.7,27.61,North,353,5.4,5.4,35,0.00,,---,0.00,VWS V14.01,2013-05-05 15:22:00,
2013-05-05 10:27:00,55.6,28.4,27.61,North,353,5.8,7.2,35,0.00,,---,0.00,VWS V14.01,2013-05-05 15:27:00,
2013-05-05 10:32:00,56.7,29.3,27.61,NNE,15,5.4,6.7,35,0.00,,---,0.00,VWS V14.01,2013-05-05 15:32:00,
2013-05-05 10:37:00,55.6,28.4,27.61,NNW,338,8.1,10.5,35,0.00,,---,0.00,VWS V14.01,2013-05-05 15:37:00,
2013-05-05 10:42:00,57.6,30.1,27.61,NW,321,5.4,7.6,35,0.00,,---,0.00,VWS V14.01,2013-05-05 15:42:00,
2013-05-05 10:47:00,56.7,29.3,27.61,NNW,332,6.3,6.3,35,0.00,,---,0.00,VWS V14.01,2013-05-05 15:47:00,
2013-05-05 10:52:00,57.2,29.8,27.61,North,6,8.1,8.1,35,0.00,,---,0.00,VWS V14.01,2013-05-05 15:52:00,
2013-05-05 10:57:00,57.9,30.5,27.61,NNW,341,5.8,5.8,35,0.00,,---,0.00,VWS V14.01,2013-05-05 15:57:00,
2013-05-05 11:02:00,57.6,30.1,27.61,NW,321,6.3,6.3,35,0.00,,---,0.00,VWS V14.01,2013-05-05 16:02:00,
2013-05-05 11:07:00,57.9,30.5,27.61,NW,318,5.8,7.6,35,0.00,,---,0.00,VWS V14.01,2013-05-05 16:07:00,
2013-05-05 11:12:00,57.4,30.0,27.61,North,10,6.3,10.1,35,0.00,,---,0.00,VWS V14.01,2013-05-05 16:12:00,
2013-05-05 11:17:00,57.6,30.1,27.58,North,357,6.3,7.6,35,0.00,,---,0.00,VWS V14.01,2013-05-05 16:17:00,
2013-05-05 11:22:00,57.7,30.3,27.58,NNW,334,6.3,7.6,35,0.00,,---,0.00,VWS V14.01,2013-05-05 16:22:00,
2013-05-05 11:27:00,58.5,30.9,27.58,North,353,5.8,12.3,35,0.00,,---,0.00,VWS V14.01,2013-05-05 16:27:00,
2013-05-05 11:32:00,59.2,30.9,27.61,North,6,5.4,6.7,34,0.00,,---,0.00,VWS V14.01,2013-05-05 16:32:00,
2013-05-05 11:37:00,57.7,30.3,27.61,North,0,6.3,6.3,35,0.00,,---,0.00,VWS V14.01,2013-05-05 16:37:00,
2013-05-05 11:42:00,59.2,31.6,27.61,North,357,5.8,6.7,35,0.00,,---,0.00,VWS V14.01,2013-05-05 16:42:00,
2013-05-05 11:47:00,59.7,32.0,27.58,NNW,342,8.3,8.3,35,0.00,,---,0.00,VWS V14.01,2013-05-05 16:47:00,
2013-05-05 11:52:00,60.1,32.4,27.58,North,353,5.8,5.8,35,0.00,,---,0.00,VWS V14.01,2013-05-05 16:52:00,
2013-05-05 11:57:00,59.4,31.7,27.58,NNW,333,10.1,10.1,35,0.00,,---,0.00,VWS V14.01,2013-05-05 16:57:00,
2013-05-05 12:02:00,61.0,32.4,27.58,NW,315,8.1,8.1,34,0.00,,---,0.00,VWS V14.01,2013-05-05 17:02:00,
2013-05-05 12:07:00,60.1,32.4,27.58,WNW,291,7.6,7.6,35,0.00,,---,0.00,VWS V14.01,2013-05-05 17:07:00,
2013-05-05 12:12:00,60.4,32.7,27.58,NNW,332,8.1,8.3,35,0.00,,---,0.00,VWS V14.01,2013-05-05 17:12:00,
2013-05-05 12:17:00,59.7,32.0,27.58,North,357,5.8,7.6,35,0.00,,---,0.00,VWS V14.01,2013-05-05 17:17:00,
2013-05-05 12:22:00,59.7,32.0,27.58,NNW,344,5.8,5.8,35,0.00,,---,0.00,VWS V14.01,2013-05-05 17:22:00,
2013-05-05 12:27:00,61.0,32.4,27.58,NW,315,8.3,8.3,34,0.00,,---,0.00,VWS V14.01,2013-05-05 17:27:00,
2013-05-05 12:32:00,60.4,32.7,27.58,NW,312,6.3,6.3,35,0.00,,---,0.00,VWS V14.01,2013-05-05 17:32:00,
2013-05-05 12:37:00,61.2,32.6,27.58,NNW,334,8.3,8.3,34,0.00,,---,0.00,VWS V14.01,2013-05-05 17:37:00,
2013-05-05 12:42:00,61.7,33.1,27.58,North,0,8.3,8.3,34,0.00,,---,0.00,VWS V14.01,2013-05-05 17:42:00,
2013-05-05 12:47:00,62.2,33.5,27.58,NW,325,6.3,7.6,34,0.00,,---,0.00,VWS V14.01,2013-05-05 17:47:00,
2013-05-05 12:52:00,61.9,33.2,27.58,North,1,5.8,5.8,34,0.00,,---,0.00,VWS V14.01,2013-05-05 17:52:00,
2013-05-05 12:57:00,62.1,33.4,27.58,NNW,338,8.1,8.1,34,0.00,,---,0.00,VWS V14.01,2013-05-05 17:57:00,
2013-05-05 13:02:00,62.6,33.9,27.55,North,353,5.4,8.7,34,0.00,,---,0.00,VWS V14.01,2013-05-05 18:02:00,
2013-05-05 13:07:00,63.0,34.2,27.55,North,10,4.0,7.6,34,0.00,,---,0.00,VWS V14.01,2013-05-05 18:07:00,
2013-05-05 13:12:00,63.9,35.0,27.55,North,357,6.7,6.7,34,0.00,,---,0.00,VWS V14.01,2013-05-05 18:12:00,
2013-05-05 13:17:00,62.6,33.9,27.55,NNE,22,3.6,3.6,34,0.00,,---,0.00,VWS V14.01,2013-05-05 18:17:00,
2013-05-05 13:22:00,62.6,33.9,27.55,North,5,4.9,4.9,34,0.00,,---,0.00,VWS V14.01,2013-05-05 18:22:00,
2013-05-05 13:27:00,62.1,33.4,27.55,North,0,6.3,6.3,34,0.00,,---,0.00,VWS V14.01,2013-05-05 18:27:00,
2013-05-05 13:32:00,63.1,34.3,27.55,NNW,341,8.1,8.1,34,0.00,,---,0.00,VWS V14.01,2013-05-05 18:32:00,
2013-05-05 13:37:00,63.1,34.3,27.55,North,9,5.8,5.8,34,0.00,,---,0.00,VWS V14.01,2013-05-05 18:37:00,
2013-05-05 13:42:00,63.1,34.3,27.55,NE,39,6.3,6.3,34,0.00,,---,0.00,VWS V14.01,2013-05-05 18:42:00,
2013-05-05 13:47:00,63.7,34.8,27.55,WNW,288,4.0,5.8,34,0.00,,---,0.00,VWS V14.01,2013-05-05 18:47:00,
2013-05-05 13:52:00,64.0,35.1,27.55,North,4,5.8,5.8,34,0.00,,---,0.00,VWS V14.01,2013-05-05 18:52:00,
2013-05-05 13:57:00,64.4,34.7,27.55,North,0,5.4,5.4,33,0.00,,---,0.00,VWS V14.01,2013-05-05 18:57:00,
2013-05-05 14:02:00,65.5,35.6,27.55,NE,48,3.6,3.6,33,0.00,,---,0.00,VWS V14.01,2013-05-05 19:02:00,
2013-05-05 14:07:00,65.3,35.5,27.55,North,353,4.0,4.0,33,0.00,,---,0.00,VWS V14.01,2013-05-05 19:07:00,
2013-05-05 14:12:00,64.2,35.3,27.55,North,5,5.4,5.4,34,0.00,,---,0.00,VWS V14.01,2013-05-05 19:12:00,
2013-05-05 14:17:00,64.9,35.2,27.55,NE,41,4.0,4.0,33,0.00,,---,0.00,VWS V14.01,2013-05-05 19:17:00,
2013-05-05 14:22:00,64.4,34.7,27.55,NNW,331,3.6,3.6,33,0.00,,---,0.00,VWS V14.01,2013-05-05 19:22:00,
2013-05-05 14:27:00,66.7,36.8,27.55,NE,35,2.7,4.0,33,0.00,,---,0.00,VWS V14.01,2013-05-05 19:27:00,
2013-05-05 14:32:00,65.8,36.0,27.52,North,1,5.4,5.4,33,0.00,,---,0.00,VWS V14.01,2013-05-05 19:32:00,
2013-05-05 14:37:00,66.2,36.3,27.52,North,0,4.9,4.9,33,0.00,,---,0.00,VWS V14.01,2013-05-05 19:37:00,
2013-05-05 14:42:00,67.8,37.7,27.52,NNW,341,5.8,5.8,33,0.00,,---,0.00,VWS V14.01,2013-05-05 19:42:00,
2013-05-05 14:47:00,66.9,36.9,27.52,NW,319,4.0,4.0,33,0.00,,---,0.00,VWS V14.01,2013-05-05 19:47:00,
2013-05-05 14:52:00,67.1,37.1,27.52,NNW,337,5.8,5.8,33,0.00,,---,0.00,VWS V14.01,2013-05-05 19:52:00,
2013-05-05 14:57:00,64.9,35.2,27.52,NE,44,5.4,5.4,33,0.00,,---,0.00,VWS V14.01,2013-05-05 19:57:00,
2013-05-05 15:02:00,64.9,35.2,27.52,NE,43,5.8,5.8,33,0.00,,---,0.00,VWS V14.01,2013-05-05 20:02:00,
2013-05-05 15:07:00,63.0,34.2,27.52,ENE,59,6.3,6.3,34,0.00,,---,0.00,VWS V14.01,2013-05-05 20:07:00,
2013-05-05 15:12:00,67.5,37.4,27.52,NW,314,8.3,8.3,33,0.00,,---,0.00,VWS V14.01,2013-05-05 20:12:00,
2013-05-05 15:17:00,68.7,38.5,27.52,North,353,0.0,4.0,33,0.00,,---,0.00,VWS V14.01,2013-05-05 20:17:00,
2013-05-05 15:22:00,68.5,38.3,27.52,NNW,335,5.8,5.8,33,0.00,,---,0.00,VWS V14.01,2013-05-05 20:22:00,
2013-05-05 15:27:00,67.6,37.5,27.52,North,0,3.6,5.4,33,0.00,,---,0.00,VWS V14.01,2013-05-05 20:27:00,
2013-05-05 15:31:00,67.6,37.5,27.52,WNW,294,6.3,6.3,33,0.00,,---,0.00,VWS V14.01,2013-05-05 20:31:00,
2013-05-05 15:36:00,69.8,38.6,27.52,WSW,246,3.1,3.1,32,0.00,,---,0.00,VWS V14.01,2013-05-05 20:36:00,
2013-05-05 15:41:00,68.4,38.2,27.52,North,4,6.3,6.3,33,0.00,,---,0.00,VWS V14.01,2013-05-05 20:41:00,
2013-05-05 15:46:00,69.6,39.3,27.52,NW,326,7.6,7.6,33,0.00,,---,0.00,VWS V14.01,2013-05-05 20:46:00,
2013-05-05 15:51:00,70.9,39.6,27.52,NW,307,2.7,4.0,32,0.00,,---,0.00,VWS V14.01,2013-05-05 20:51:00,
2013-05-05 15:56:00,68.9,38.6,27.52,North,5,5.4,5.4,33,0.00,,---,0.00,VWS V14.01,2013-05-05 20:56:00,
2013-05-05 16:01:00,68.2,38.0,27.52,North,5,5.8,5.8,33,0.00,,---,0.00,VWS V14.01,2013-05-05 21:01:00,
2013-05-05 16:06:00,68.2,38.0,27.52,NNE,13,3.1,3.1,33,0.00,,---,0.00,VWS V14.01,2013-05-05 21:06:00,
2013-05-05 16:11:00,68.5,38.3,27.52,North,353,5.8,5.8,33,0.00,,---,0.00,VWS V14.01,2013-05-05 21:11:00,
2013-05-05 16:16:00,67.6,37.5,27.52,NNE,13,3.6,4.9,33,0.00,,---,0.00,VWS V14.01,2013-05-05 21:16:00,
2013-05-05 16:21:00,68.5,38.3,27.52,West,274,2.7,2.7,33,0.00,,---,0.00,VWS V14.01,2013-05-05 21:21:00,
2013-05-05 16:26:00,69.4,39.1,27.52,North,357,3.6,3.6,33,0.00,,---,0.00,VWS V14.01,2013-05-05 21:26:00,
2013-05-05 16:31:00,66.6,36.6,27.49,NNE,28,3.1,3.1,33,0.00,,---,0.00,VWS V14.01,2013-05-05 21:31:00,
2013-05-05 16:36:00,70.7,39.4,27.49,North,9,0.0,0.0,32,0.00,,---,0.00,VWS V14.01,2013-05-05 21:36:00,
2013-05-05 16:41:00,68.7,38.5,27.49,North,4,4.0,4.0,33,0.00,,---,0.00,VWS V14.01,2013-05-05 21:41:00,
2013-05-05 16:46:00,70.5,39.3,27.49,NNE,17,0.0,0.0,32,0.00,,---,0.00,VWS V14.01,2013-05-05 21:46:00,
2013-05-05 16:51:00,69.1,38.8,27.49,North,0,4.9,5.4,33,0.00,,---,0.00,VWS V14.01,2013-05-05 21:51:00,
2013-05-05 16:56:00,67.5,37.4,27.49,North,6,5.8,5.8,33,0.00,,---,0.00,VWS V14.01,2013-05-05 21:56:00,
2013-05-05 17:01:00,68.9,38.6,27.49,North,350,8.3,8.3,33,0.00,,---,0.00,VWS V14.01,2013-05-05 22:01:00,
2013-05-05 17:06:00,69.8,38.6,27.49,West,261,4.0,4.0,32,0.00,,---,0.00,VWS V14.01,2013-05-05 22:06:00,
2013-05-05 17:11:00,70.0,38.8,27.49,NNW,338,4.0,4.0,32,0.00,,---,0.00,VWS V14.01,2013-05-05 22:11:00,
2013-05-05 17:16:00,71.2,39.9,27.49,WNW,284,3.1,3.1,32,0.00,,---,0.00,VWS V14.01,2013-05-05 22:16:00,
2013-05-05 17:21:00,68.0,37.8,27.49,North,2,3.6,3.6,33,0.00,,---,0.00,VWS V14.01,2013-05-05 22:21:00,
2013-05-05 17:26:00,65.5,35.6,27.49,NE,50,7.2,8.1,33,0.00,,---,0.00,VWS V14.01,2013-05-05 22:26:00,
2013-05-05 17:31:00,65.5,35.6,27.49,ENE,57,4.0,5.4,33,0.00,,---,0.00,VWS V14.01,2013-05-05 22:31:00,
2013-05-05 17:36:00,66.6,36.6,27.49,NE,52,5.4,5.4,33,0.00,,---,0.00,VWS V14.01,2013-05-05 22:36:00,
2013-05-05 17:41:00,65.8,36.0,27.49,NE,38,5.4,5.4,33,0.00,,---,0.00,VWS V14.01,2013-05-05 22:41:00,
2013-05-05 17:46:00,68.7,38.5,27.49,North,0,3.6,5.4,33,0.00,,---,0.00,VWS V14.01,2013-05-05 22:46:00,
2013-05-05 17:51:00,70.3,39.1,27.49,NNW,330,2.7,2.7,32,0.00,,---,0.00,VWS V14.01,2013-05-05 22:51:00,
2013-05-05 17:56:00,69.8,38.6,27.49,North,0,3.6,3.6,32,0.00,,---,0.00,VWS V14.01,2013-05-05 22:56:00,
2013-05-05 18:01:00,70.7,39.4,27.49,North,2,4.0,4.0,32,0.00,,---,0.00,VWS V14.01,2013-05-05 23:01:00,
2013-05-05 18:06:00,70.3,39.1,27.49,North,3,2.7,4.0,32,0.00,,---,0.00,VWS V14.01,2013-05-05 23:06:00,
2013-05-05 18:11:00,68.4,38.2,27.49,NE,54,5.4,5.4,33,0.00,,---,0.00,VWS V14.01,2013-05-05 23:11:00,
2013-05-05 18:16:00,67.6,37.5,27.49,NE,55,2.2,2.2,33,0.00,,---,0.00,VWS V14.01,2013-05-05 23:16:00,
2013-05-05 18:21:00,69.6,39.3,27.49,NW,320,4.9,5.4,33,0.00,,---,0.00,VWS V14.01,2013-05-05 23:21:00,
2013-05-05 18:26:00,67.1,37.1,27.49,NE,52,3.1,3.1,33,0.00,,---,0.00,VWS V14.01,2013-05-05 23:26:00,
2013-05-05 18:31:00,66.7,36.8,27.49,North,0,3.1,3.6,33,0.00,,---,0.00,VWS V14.01,2013-05-05 23:31:00,
2013-05-05 18:36:00,67.1,37.1,27.49,North,0,3.1,3.1,33,0.00,,---,0.00,VWS V14.01,2013-05-05 23:36:00,
2013-05-05 18:41:00,64.9,35.2,27.49,NE,46,4.0,4.0,33,0.00,,---,0.00,VWS V14.01,2013-05-05 23:41:00,
2013-05-05 18:46:00,66.2,36.3,27.49,North,357,2.7,4.0,33,0.00,,---,0.00,VWS V14.01,2013-05-05 23:46:00,
2013-05-05 18:51:00,66.4,36.4,27.49,North,353,3.1,3.1,33,0.00,,---,0.00,VWS V14.01,2013-05-05 23:51:00,
2013-05-05 18:56:00,65.7,35.8,27.49,North,357,3.1,3.1,33,0.00,,---,0.00,VWS V14.01,2013-05-05 23:56:00,
2013-05-05 19:01:00,65.7,35.8,27.49,North,357,3.6,3.6,33,0.00,,---,0.00,VWS V14.01,2013-05-06 00:01:00,
2013-05-05 19:06:00,64.9,35.2,27.49,NE,45,5.4,5.4,33,0.00,,---,0.00,VWS V14.01,2013-05-06 00:06:00,
2013-05-05 19:11:00,64.4,34.7,27.49,North,3,4.0,4.9,33,0.00,,---,0.00,VWS V14.01,2013-05-06 00:11:00,
2013-05-05 19:16:00,63.9,35.0,27.49,North,3,3.1,3.1,34,0.00,,---,0.00,VWS V14.01,2013-05-06 00:16:00,
2013-05-05 19:21:00,63.3,34.5,27.49,NE,39,3.1,3.1,34,0.00,,---,0.00,VWS V14.01,2013-05-06 00:21:00,
2013-05-05 19:26:00,61.5,32.9,27.49,NE,34,3.1,3.1,34,0.00,,---,0.00,VWS V14.01,2013-05-06 00:26:00,
2013-05-05 19:31:00,60.8,32.3,27.49,NNE,31,3.6,3.6,34,0.00,,---,0.00,VWS V14.01,2013-05-06 00:31:00,
2013-05-05 19:36:00,60.1,32.4,27.49,NE,45,4.9,5.4,35,0.00,,---,0.00,VWS V14.01,2013-05-06 00:36:00,
2013-05-05 19:41:00,59.7,32.0,27.49,NE,43,5.4,5.4,35,0.00,,---,0.00,VWS V14.01,2013-05-06 00:41:00,
2013-05-05 19:46:00,59.4,31.7,27.49,NE,37,4.0,4.0,35,0.00,,---,0.00,VWS V14.01,2013-05-06 00:46:00,
2013-05-05 19:51:00,59.0,31.4,27.49,NE,39,4.0,4.0,35,0.00,,---,0.00,VWS V14.01,2013-05-06 00:51:00,
2013-05-05 19:56:00,58.5,30.9,27.49,NE,39,3.6,3.6,35,0.00,,---,0.00,VWS V14.01,2013-05-06 00:56:00,
2013-05-05 20:01:00,57.9,30.5,27.49,NE,39,2.7,2.7,35,0.00,,---,0.00,VWS V14.01,2013-05-06 01:01:00,
2013-05-05 20:06:00,57.4,30.0,27.49,NE,39,2.7,3.1,35,0.00,,---,0.00,VWS V14.01,2013-05-06 01:06:00,
2013-05-05 20:11:00,57.0,29.7,27.49,NE,39,3.6,3.6,35,0.00,,---,0.00,VWS V14.01,2013-05-06 01:11:00,
2013-05-05 20:16:00,56.7,29.3,27.49,NE,39,4.0,4.0,35,0.00,,---,0.00,VWS V14.01,2013-05-06 01:16:00,
2013-05-05 20:21:00,56.1,28.9,27.49,NE,41,2.7,2.7,35,0.00,,---,0.00,VWS V14.01,2013-05-06 01:21:00,
2013-05-05 20:26:00,54.9,28.4,27.49,NE,41,0.0,0.0,36,0.00,,---,0.00,VWS V14.01,2013-05-06 01:26:00,
2013-05-05 20:31:00,54.0,27.6,27.49,NE,41,0.0,0.0,36,0.00,,---,0.00,VWS V14.01,2013-05-06 01:31:00,
2013-05-05 20:36:00,54.0,27.6,27.49,NE,41,0.0,0.0,36,0.00,,---,0.00,VWS V14.01,2013-05-06 01:36:00,
2013-05-05 20:41:00,54.1,27.8,27.49,NE,41,2.7,2.7,36,0.00,,---,0.00,VWS V14.01,2013-05-06 01:41:00,
2013-05-05 20:46:00,54.1,27.8,27.49,NE,41,3.1,3.1,36,0.00,,---,0.00,VWS V14.01,2013-05-06 01:46:00,
2013-05-05 20:51:00,54.1,27.8,27.49,NE,41,3.1,3.1,36,0.00,,---,0.00,VWS V14.01,2013-05-06 01:51:00,
2013-05-05 20:56:00,54.0,27.6,27.49,NE,42,4.0,4.0,36,0.00,,---,0.00,VWS V14.01,2013-05-06 01:56:00,
2013-05-05 21:01:00,54.1,27.8,27.49,NE,56,4.0,4.0,36,0.00,,---,0.00,VWS V14.01,2013-05-06 02:01:00,
2013-05-05 21:06:00,53.4,27.1,27.49,NE,56,4.0,4.0,36,0.00,,---,0.00,VWS V14.01,2013-05-06 02:06:00,
2013-05-05 21:11:00,52.3,26.2,27.49,NE,56,3.1,3.1,36,0.00,,---,0.00,VWS V14.01,2013-05-06 02:11:00,
2013-05-05 21:16:00,51.6,25.6,27.49,NE,56,3.1,3.1,36,0.00,,---,0.00,VWS V14.01,2013-05-06 02:16:00,
2013-05-05 21:21:00,52.2,26.0,27.49,NE,56,3.6,3.6,36,0.00,,---,0.00,VWS V14.01,2013-05-06 02:21:00,
2013-05-05 21:26:00,50.7,24.8,27.49,NE,56,0.0,2.2,36,0.00,,---,0.00,VWS V14.01,2013-05-06 02:26:00,
2013-05-05 21:31:00,49.1,24.0,27.49,NE,56,0.0,0.0,37,0.00,,---,0.00,VWS V14.01,2013-05-06 02:31:00,
2013-05-05 21:36:00,48.0,23.0,27.49,NE,56,0.0,0.0,37,0.00,,---,0.00,VWS V14.01,2013-05-06 02:36:00,
2013-05-05 21:41:00,47.8,22.9,27.49,NE,56,0.0,0.0,37,0.00,,---,0.00,VWS V14.01,2013-05-06 02:41:00,
2013-05-05 21:46:00,47.5,22.5,27.49,NE,56,0.0,0.0,37,0.00,,---,0.00,VWS V14.01,2013-05-06 02:46:00,
2013-05-05 21:51:00,46.6,21.7,27.49,NE,56,0.0,0.0,37,0.00,,---,0.00,VWS V14.01,2013-05-06 02:51:00,
2013-05-05 21:56:00,46.4,21.6,27.49,NE,56,0.0,0.0,37,0.00,,---,0.00,VWS V14.01,2013-05-06 02:56:00,
2013-05-05 22:01:00,45.7,21.5,27.52,NE,56,0.0,0.0,38,0.00,,---,0.00,VWS V14.01,2013-05-06 03:01:00,
2013-05-05 22:06:00,44.8,20.7,27.52,NE,56,0.0,0.0,38,0.00,,---,0.00,VWS V14.01,2013-05-06 03:06:00,
2013-05-05 22:11:00,43.9,19.9,27.52,NE,56,0.0,0.0,38,0.00,,---,0.00,VWS V14.01,2013-05-06 03:11:00,
2013-05-05 22:16:00,43.5,19.6,27.52,NE,56,0.0,0.0,38,0.00,,---,0.00,VWS V14.01,2013-05-06 03:16:00,
2013-05-05 22:21:00,43.7,19.8,27.52,NE,56,0.0,0.0,38,0.00,,---,0.00,VWS V14.01,2013-05-06 03:21:00,
2013-05-05 22:26:00,44.6,20.6,27.52,NE,56,2.7,2.7,38,0.00,,---,0.00,VWS V14.01,2013-05-06 03:26:00,
2013-05-05 22:31:00,43.7,19.8,27.52,NE,56,2.7,2.7,38,0.00,,---,0.00,VWS V14.01,2013-05-06 03:31:00,
2013-05-05 22:36:00,43.2,19.3,27.52,NNE,18,0.0,0.0,38,0.00,,---,0.00,VWS V14.01,2013-05-06 03:36:00,
2013-05-05 22:41:00,43.7,19.8,27.52,NNE,18,0.0,0.0,38,0.00,,---,0.00,VWS V14.01,2013-05-06 03:41:00,
2013-05-05 22:46:00,43.5,19.6,27.52,NNE,18,0.0,0.0,38,0.00,,---,0.00,VWS V14.01,2013-05-06 03:46:00,
2013-05-05 22:51:00,42.4,18.6,27.52,NNE,18,0.0,0.0,38,0.00,,---,0.00,VWS V14.01,2013-05-06 03:51:00,
2013-05-05 22:56:00,42.8,19.0,27.52,NNE,18,0.0,0.0,38,0.00,,---,0.00,VWS V14.01,2013-05-06 03:56:00,
2013-05-05 23:01:00,43.7,19.8,27.52,NNE,18,0.0,0.0,38,0.00,,---,0.00,VWS V14.01,2013-05-06 04:01:00,
2013-05-05 23:06:00,43.5,19.6,27.52,NNE,18,0.0,0.0,38,0.00,,---,0.00,VWS V14.01,2013-05-06 04:06:00,
2013-05-05 23:11:00,42.8,19.0,27.52,NNE,18,0.0,0.0,38,0.00,,---,0.00,VWS V14.01,2013-05-06 04:11:00,
2013-05-05 23:16:00,43.0,19.1,27.52,NNE,18,0.0,0.0,38,0.00,,---,0.00,VWS V14.01,2013-05-06 04:16:00,
2013-05-05 23:21:00,41.4,17.7,27.52,NNE,18,0.0,0.0,38,0.00,,---,0.00,VWS V14.01,2013-05-06 04:21:00,
2013-05-05 23:26:00,40.6,17.6,27.52,NNE,18,0.0,0.0,39,0.00,,---,0.00,VWS V14.01,2013-05-06 04:26:00,
2013-05-05 23:31:00,40.3,17.3,27.52,NNE,18,0.0,0.0,39,0.00,,---,0.00,VWS V14.01,2013-05-06 04:31:00,
2013-05-05 23:36:00,40.3,17.3,27.52,NNE,18,0.0,0.0,39,0.00,,---,0.00,VWS V14.01,2013-05-06 04:36:00,
2013-05-05 23:41:00,40.3,17.3,27.52,NNE,18,0.0,0.0,39,0.00,,---,0.00,VWS V14.01,2013-05-06 04:41:00,
2013-05-05 23:46:00,40.3,17.3,27.52,NNE,18,0.0,0.0,39,0.00,,---,0.00,VWS V14.01,2013-05-06 04:46:00,
2013-05-05 23:51:00,39.7,16.8,27.52,SSW,204,0.0,0.0,39,0.00,,---,0.00,VWS V14.01,2013-05-06 04:51:00,
2013-05-05 23:56:00,39.2,16.3,27.52,SSW,204,0.0,0.0,39,0.00,,---,0.00,VWS V14.01,2013-05-06 04:56:00,